createdAt,value
2018-04-22T00:01:54.003Z,101517.31
2018-04-22T00:04:22.604Z,101507.39
2018-04-22T00:06:51.325Z,101506.80
2018-04-22T00:09:20.068Z,101499.16
2018-04-22T00:11:48.671Z,101502.76
2018-04-22T00:14:17.188Z,101496.06
2018-04-22T00:16:46.036Z,101497.98
2018-04-22T00:19:14.711Z,101489.55
2018-04-22T00:21:43.326Z,101498.30
2018-04-22T00:24:12.089Z,101497.76
2018-04-22T00:26:40.796Z,101489.81
2018-04-22T00:29:09.272Z,101490.38
2018-04-22T00:31:37.872Z,101495.98
2018-04-22T00:34:06.383Z,101491.73
2018-04-22T00:36:34.955Z,101488.83
2018-04-22T00:39:03.824Z,101492.25
2018-04-22T00:41:32.692Z,101491.28
2018-04-22T00:44:01.187Z,101488.83
2018-04-22T00:46:29.707Z,101494.70
2018-04-22T00:48:58.499Z,101486.08
2018-04-22T00:51:27.102Z,101490.06
2018-04-22T00:54:04.523Z,101489.06
2018-04-22T00:56:33.283Z,101488.22
2018-04-22T00:59:01.847Z,101490.27
2018-04-22T01:01:30.775Z,101493.12
2018-04-22T01:03:59.615Z,101492.02
2018-04-22T01:06:28.363Z,101493.67
2018-04-22T01:08:56.847Z,101497.89
2018-04-22T01:11:25.735Z,101496.31
2018-04-22T01:13:54.437Z,101491.69
2018-04-22T01:16:23.126Z,101486.03
2018-04-22T01:18:51.743Z,101490.42
2018-04-22T01:21:20.576Z,101484.15
2018-04-22T01:23:49.274Z,101480.09
2018-04-22T01:26:18.358Z,101484.05
2018-04-22T01:28:47.236Z,101481.75
2018-04-22T01:31:15.932Z,101483.92
2018-04-22T01:33:44.600Z,101480.91
2018-04-22T01:36:13.146Z,101484.18
2018-04-22T01:38:41.775Z,101489.01
2018-04-22T01:41:10.483Z,101481.75
2018-04-22T01:43:39.016Z,101477.97
2018-04-22T01:46:07.870Z,101475.91
2018-04-22T01:48:36.383Z,101470.17
2018-04-22T01:51:05.030Z,101478.20
2018-04-22T01:53:33.716Z,101477.41
2018-04-22T01:56:02.436Z,101472.45
2018-04-22T01:58:31.056Z,101470.16
2018-04-22T02:00:59.752Z,101471.08
2018-04-22T02:03:28.268Z,101474.90
2018-04-22T02:05:57.418Z,101476.78
2018-04-22T02:08:25.968Z,101469.30
2018-04-22T02:10:54.700Z,101464.18
2018-04-22T02:13:23.343Z,101459.66
2018-04-22T02:15:52.086Z,101454.09
2018-04-22T02:18:20.714Z,101456.61
2018-04-22T02:20:49.291Z,101457.88
2018-04-22T02:23:18.088Z,101458.67
2018-04-22T02:25:46.813Z,101457.97
2018-04-22T02:28:15.339Z,101454.00
2018-04-22T02:30:44.427Z,101446.69
2018-04-22T02:33:12.982Z,101445.86
2018-04-22T02:35:41.690Z,101445.12
2018-04-22T02:38:10.196Z,101447.60
2018-04-22T02:40:39.006Z,101444.45
2018-04-22T02:43:07.780Z,101435.92
2018-04-22T02:45:36.327Z,101430.46
2018-04-22T02:48:05.139Z,101438.46
2018-04-22T02:50:40.275Z,101433.91
2018-04-22T02:53:08.844Z,101431.79
2018-04-22T02:55:38.005Z,101434.99
2018-04-22T02:58:06.524Z,101430.67
2018-04-22T03:00:35.069Z,101428.41
2018-04-22T03:03:03.616Z,101424.69
2018-04-22T03:05:32.548Z,101421.83
2018-04-22T03:08:01.062Z,101416.19
2018-04-22T03:10:29.703Z,101417.93
2018-04-22T03:12:58.208Z,101417.97
2018-04-22T03:15:26.899Z,101429.08
2018-04-22T03:17:55.641Z,101422.02
2018-04-22T03:20:24.256Z,101419.58
2018-04-22T03:22:52.928Z,101417.18
2018-04-22T03:25:21.504Z,101419.34
2018-04-22T03:27:50.072Z,101421.16
2018-04-22T03:30:18.588Z,101419.91
2018-04-22T03:32:47.131Z,101416.31
2018-04-22T03:35:15.660Z,101415.32
2018-04-22T03:37:44.207Z,101420.38
2018-04-22T03:40:12.717Z,101420.42
2018-04-22T03:42:41.373Z,101414.00
2018-04-22T03:45:09.961Z,101414.88
2018-04-22T03:47:38.837Z,101403.95
2018-04-22T03:50:07.393Z,101411.11
2018-04-22T03:52:36.405Z,101407.02
2018-04-22T03:55:05.007Z,101405.66
2018-04-22T03:57:34.194Z,101406.06
2018-04-22T04:03:05.226Z,101406.00
2018-04-22T04:05:33.604Z,101406.72
2018-04-22T04:08:02.246Z,101399.71
2018-04-22T04:10:30.951Z,101399.56
2018-04-22T04:12:59.263Z,101404.89
2018-04-22T04:15:27.679Z,101404.39
2018-04-22T04:18:02.652Z,101405.92
2018-04-22T04:22:45.177Z,101407.33
2018-04-22T04:26:33.332Z,101407.39
2018-04-22T04:29:01.627Z,101409.52
2018-04-22T04:31:29.981Z,101406.37
2018-04-22T04:33:58.329Z,101412.09
2018-04-22T04:36:26.750Z,101408.95
2018-04-22T04:38:55.099Z,101406.86
2018-04-22T04:41:23.416Z,101411.28
2018-04-22T04:43:51.705Z,101407.95
2018-04-22T04:46:20.052Z,101409.88
2018-04-22T04:48:48.367Z,101403.36
2018-04-22T04:51:16.687Z,101410.95
2018-04-22T04:53:45.027Z,101410.05
2018-04-22T04:56:13.361Z,101406.71
2018-04-22T04:58:41.744Z,101406.92
2018-04-22T05:01:10.064Z,101401.47
2018-04-22T05:03:38.582Z,101400.22
2018-04-22T05:06:06.911Z,101390.98
2018-04-22T05:08:35.255Z,101394.59
2018-04-22T05:11:03.617Z,101395.45
2018-04-22T05:13:31.932Z,101393.80
2018-04-22T05:16:00.407Z,101398.56
2018-04-22T05:18:28.731Z,101393.06
2018-04-22T05:20:57.061Z,101396.72
2018-04-22T05:23:25.399Z,101385.85
2018-04-22T05:25:54.410Z,101392.53
2018-04-22T05:28:22.720Z,101380.94
2018-04-22T05:30:51.073Z,101387.86
2018-04-22T05:33:19.533Z,101385.17
2018-04-22T05:35:47.852Z,101390.73
2018-04-22T05:38:16.590Z,101391.01
2018-04-22T05:40:44.967Z,101388.95
2018-04-22T05:43:13.472Z,101383.23
2018-04-22T05:45:41.805Z,101382.41
2018-04-22T05:48:10.195Z,101381.50
2018-04-22T05:50:38.607Z,101376.68
2018-04-22T05:53:06.920Z,101382.36
2018-04-22T05:55:35.250Z,101380.83
2018-04-22T05:58:03.537Z,101384.28
2018-04-22T06:00:31.974Z,101374.23
2018-04-22T06:03:00.313Z,101375.17
2018-04-22T06:05:28.772Z,101373.67
2018-04-22T06:07:57.368Z,101372.43
2018-04-22T06:10:25.687Z,101366.44
2018-04-22T06:12:53.976Z,101375.51
2018-04-22T06:15:22.343Z,101378.98
2018-04-22T06:17:50.661Z,101366.10
2018-04-22T06:20:19.039Z,101371.19
2018-04-22T06:22:47.354Z,101371.08
2018-04-22T06:25:15.683Z,101365.95
2018-04-22T06:27:44.316Z,101368.92
2018-04-22T06:30:12.636Z,101362.33
2018-04-22T06:32:40.936Z,101365.78
2018-04-22T06:35:09.425Z,101361.04
2018-04-22T06:37:37.757Z,101355.79
2018-04-22T06:40:06.124Z,101356.48
2018-04-22T06:42:34.531Z,101355.72
2018-04-22T06:45:02.951Z,101348.51
2018-04-22T06:47:31.296Z,101341.50
2018-04-22T06:49:59.607Z,101344.05
2018-04-22T06:52:28.064Z,101341.98
2018-04-22T06:54:56.619Z,101344.62
2018-04-22T06:57:25.008Z,101339.61
2018-04-22T06:59:53.309Z,101339.83
2018-04-22T07:02:21.675Z,101343.45
2018-04-22T07:04:50.083Z,101340.12
2018-04-22T07:07:18.581Z,101331.77
2018-04-22T07:09:47.003Z,101332.98
2018-04-22T07:12:15.370Z,101330.97
2018-04-22T07:14:43.956Z,101333.80
2018-04-22T07:17:12.407Z,101329.73
2018-04-22T07:19:40.731Z,101335.77
2018-04-22T07:22:10.619Z,101334.58
2018-04-22T07:24:41.600Z,101333.11
2018-04-22T07:27:12.874Z,101337.91
2018-04-22T07:29:41.268Z,101338.47
2018-04-22T07:32:09.733Z,101331.31
2018-04-22T07:34:38.119Z,101327.28
2018-04-22T07:37:06.548Z,101325.02
2018-04-22T07:39:34.948Z,101322.31
2018-04-22T07:42:03.699Z,101302.39
2018-04-22T07:44:32.170Z,101323.16
2018-04-22T07:47:00.626Z,101332.78
2018-04-22T07:49:29.167Z,101330.14
2018-04-22T07:51:57.756Z,101328.10
2018-04-22T07:54:26.119Z,101328.83
2018-04-22T07:56:54.856Z,101329.37
2018-04-22T07:59:23.187Z,101332.73
2018-04-22T08:01:51.671Z,101329.25
2018-04-22T08:04:19.980Z,101331.55
2018-04-22T08:06:48.456Z,101332.27
2018-04-22T08:09:16.795Z,101325.55
2018-04-22T08:11:45.136Z,101327.74
2018-04-22T08:14:13.679Z,101324.51
2018-04-22T08:16:42.052Z,101325.94
2018-04-22T08:19:10.407Z,101323.98
2018-04-22T08:21:39.030Z,101324.62
2018-04-22T08:24:07.471Z,101321.78
2018-04-22T08:26:36.505Z,101321.25
2018-04-22T08:29:04.900Z,101321.11
2018-04-22T08:31:33.275Z,101323.35
2018-04-22T08:34:01.708Z,101322.21
2018-04-22T08:36:30.207Z,101318.70
2018-04-22T08:38:58.638Z,101312.64
2018-04-22T08:41:27.047Z,101321.00
2018-04-22T08:43:55.514Z,101309.98
2018-04-22T08:46:24.217Z,101309.00
2018-04-22T08:48:52.527Z,101307.55
2018-04-22T08:51:20.888Z,101306.02
2018-04-22T08:53:49.744Z,101301.23
2018-04-22T08:56:18.807Z,101307.70
2018-04-22T08:58:47.660Z,101302.49
2018-04-22T09:01:15.965Z,101291.64
2018-04-22T09:03:44.598Z,101286.25
2018-04-22T09:06:13.676Z,101281.28
2018-04-22T09:08:42.668Z,101278.42
2018-04-22T09:11:11.512Z,101277.31
2018-04-22T09:13:39.853Z,101272.17
2018-04-22T09:16:08.212Z,101266.75
2018-04-22T09:18:38.743Z,101267.78
2018-04-22T09:21:07.369Z,101262.45
2018-04-22T09:23:35.781Z,101254.20
2018-04-22T09:26:04.383Z,101254.22
2018-04-22T09:28:32.748Z,101247.91
2018-04-22T09:31:01.466Z,101247.02
2018-04-22T09:33:30.035Z,101239.34
2018-04-22T09:36:00.647Z,101247.66
2018-04-22T09:38:28.998Z,101243.05
2018-04-22T09:40:57.317Z,101234.52
2018-04-22T09:43:25.613Z,101227.40
2018-04-22T09:45:53.918Z,101226.98
2018-04-22T09:48:22.248Z,101223.68
2018-04-22T09:50:50.559Z,101226.56
2018-04-22T09:53:20.340Z,101215.83
2018-04-22T09:55:48.862Z,101214.16
2018-04-22T09:58:17.172Z,101216.61
2018-04-22T10:00:47.099Z,101213.19
2018-04-22T10:03:16.484Z,101222.41
2018-04-22T10:05:48.976Z,101221.48
2018-04-22T10:08:17.479Z,101214.69
2018-04-22T10:10:45.870Z,101202.67
2018-04-22T10:13:14.202Z,101208.59
2018-04-22T10:15:42.796Z,101200.28
2018-04-22T10:18:11.075Z,101196.40
2018-04-22T10:20:39.502Z,101202.03
2018-04-22T10:23:08.448Z,101186.39
2018-04-22T10:25:37.165Z,101185.05
2018-04-22T10:28:05.705Z,101183.13
2018-04-22T10:30:34.103Z,101184.80
2018-04-22T10:33:02.464Z,101181.27
2018-04-22T10:35:30.804Z,101184.22
2018-04-22T10:37:59.124Z,101170.64
2018-04-22T10:40:27.438Z,101171.81
2018-04-22T10:42:56.016Z,101169.62
2018-04-22T10:45:24.843Z,101175.49
2018-04-22T10:47:53.219Z,101165.49
2018-04-22T10:50:21.550Z,101168.27
2018-04-22T10:52:49.933Z,101166.25
2018-04-22T10:55:18.341Z,101165.30
2018-04-22T10:57:46.746Z,101163.73
2018-04-22T11:00:15.146Z,101163.31
2018-04-22T11:02:43.980Z,101152.50
2018-04-22T11:05:12.331Z,101153.56
2018-04-22T11:07:40.658Z,101152.77
2018-04-22T11:10:09.979Z,101141.84
2018-04-22T11:12:38.536Z,101140.44
2018-04-22T11:15:06.908Z,101134.30
2018-04-22T11:17:35.531Z,101138.11
2018-04-22T11:20:03.908Z,101140.64
2018-04-22T11:22:32.191Z,101132.60
2018-04-22T11:25:00.494Z,101138.70
2018-04-22T11:27:28.899Z,101131.23
2018-04-22T11:29:57.253Z,101128.59
2018-04-22T11:32:25.925Z,101111.80
2018-04-22T11:34:54.447Z,101118.48
2018-04-22T11:37:22.916Z,101119.03
2018-04-22T11:39:51.217Z,101111.58
2018-04-22T11:42:19.629Z,101120.31
2018-04-22T11:44:47.954Z,101116.64
2018-04-22T11:47:16.305Z,101108.52
2018-04-22T11:49:45.771Z,101102.31
2018-04-22T11:52:14.187Z,101099.36
2018-04-22T11:54:42.614Z,101097.22
2018-04-22T11:57:11.167Z,101097.91
2018-04-22T11:59:39.581Z,101097.63
2018-04-22T12:02:08.010Z,101091.81
2018-04-22T12:04:36.383Z,101087.45
2018-04-22T12:07:05.424Z,101095.92
2018-04-22T12:09:33.707Z,101085.00
2018-04-22T12:12:02.061Z,101091.01
2018-04-22T12:14:30.407Z,101087.94
2018-04-22T12:16:58.748Z,101084.91
2018-04-22T12:19:27.048Z,101092.13
2018-04-22T12:21:55.499Z,101094.44
2018-04-22T12:24:26.633Z,101108.34
2018-04-22T12:26:55.623Z,101098.81
2018-04-22T12:29:24.012Z,101100.57
2018-04-22T12:31:52.380Z,101093.67
2018-04-22T12:34:20.948Z,101090.90
2018-04-22T12:36:50.257Z,101093.36
2018-04-22T12:39:18.625Z,101083.45
2018-04-22T12:41:47.012Z,101085.80
2018-04-22T12:44:15.332Z,101082.83
2018-04-22T12:46:43.719Z,101076.61
2018-04-22T12:49:12.067Z,101074.57
2018-04-22T12:51:40.590Z,101071.16
2018-04-22T12:54:08.952Z,101074.11
2018-04-22T12:56:37.336Z,101063.42
2018-04-22T12:59:05.771Z,101066.02
2018-04-22T13:01:34.174Z,101070.38
2018-04-22T13:04:02.514Z,101059.88
2018-04-22T13:06:30.899Z,101061.03
2018-04-22T13:08:59.217Z,101053.73
2018-04-22T13:11:27.608Z,101052.72
2018-04-22T13:13:55.954Z,101049.84
2018-04-22T13:16:24.544Z,101040.39
2018-04-22T13:18:53.001Z,101041.77
2018-04-22T13:21:21.675Z,101033.87
2018-04-22T13:23:50.006Z,100998.83
2018-04-22T13:26:18.474Z,101027.20
2018-04-22T13:28:46.882Z,101018.73
2018-04-22T13:31:15.352Z,101017.42
2018-04-22T13:33:43.986Z,101010.73
2018-04-22T13:36:12.482Z,101004.53
2018-04-22T13:38:40.820Z,101003.09
2018-04-22T13:41:09.327Z,100994.36
2018-04-22T13:43:37.638Z,100985.85
2018-04-22T13:46:06.060Z,100984.03
2018-04-22T13:48:34.447Z,100978.12
2018-04-22T13:51:04.575Z,100973.86
2018-04-22T13:53:33.329Z,100969.42
2018-04-22T13:56:02.351Z,100962.34
2018-04-22T13:58:30.620Z,100961.31
2018-04-22T14:00:59.067Z,100955.90
2018-04-22T14:03:28.037Z,100954.50
2018-04-22T14:05:56.495Z,100955.67
2018-04-22T14:08:24.867Z,100950.97
2018-04-22T14:10:53.280Z,100945.35
2018-04-22T14:13:21.688Z,100947.70
2018-04-22T14:15:50.884Z,100943.62
2018-04-22T14:18:19.234Z,100936.02
2018-04-22T14:20:47.606Z,100931.80
2018-04-22T14:23:15.958Z,100933.03
2018-04-22T14:25:44.354Z,100930.99
2018-04-22T14:28:12.685Z,100923.26
2018-04-22T14:30:41.076Z,100912.27
2018-04-22T14:33:09.376Z,100917.88
2018-04-22T14:35:37.732Z,100914.80
2018-04-22T14:38:06.043Z,100910.43
2018-04-22T14:40:34.424Z,100912.09
2018-04-22T14:43:02.821Z,100908.88
2018-04-22T14:46:12.222Z,100902.48
2018-04-22T14:48:49.470Z,100903.64
2018-04-22T14:51:18.848Z,100893.60
2018-04-22T14:53:47.335Z,100884.70
2018-04-22T14:56:15.728Z,100891.55
2018-04-22T14:58:44.266Z,100881.64
2018-04-22T15:01:12.732Z,100876.91
2018-04-22T15:03:41.029Z,100879.65
2018-04-22T15:06:09.364Z,100877.61
2018-04-22T15:08:37.727Z,100874.86
2018-04-22T15:11:06.151Z,100873.64
2018-04-22T15:13:34.499Z,100876.36
2018-04-22T15:16:02.860Z,100866.56
2018-04-22T15:18:31.176Z,100868.63
2018-04-22T15:20:59.538Z,100864.72
2018-04-22T15:23:28.724Z,100861.41
2018-04-22T15:25:57.213Z,100860.25
2018-04-22T15:28:25.540Z,100862.77
2018-04-22T15:30:53.881Z,100865.34
2018-04-22T15:33:22.183Z,100858.34
2018-04-22T15:35:50.528Z,100852.80
2018-04-22T15:38:18.943Z,100851.09
2018-04-22T15:40:47.293Z,100855.79
2018-04-22T15:43:15.781Z,100841.09
2018-04-22T15:45:44.199Z,100841.84
2018-04-22T15:48:12.561Z,100839.01
2018-04-22T15:50:40.939Z,100839.37
2018-04-22T15:53:09.236Z,100835.17
2018-04-22T15:55:38.277Z,100829.00
2018-04-22T15:58:06.945Z,100822.38
2018-04-22T16:00:35.545Z,100818.27
2018-04-22T16:03:04.291Z,100817.08
2018-04-22T16:05:32.724Z,100817.70
2018-04-22T16:08:01.095Z,100816.39
2018-04-22T16:10:30.238Z,100815.92
2018-04-22T16:12:58.547Z,100812.70
2018-04-22T16:15:27.231Z,100802.53
2018-04-22T16:17:55.772Z,100809.48
2018-04-22T16:20:24.128Z,100802.60
2018-04-22T16:22:52.411Z,100810.16
2018-04-22T16:25:20.826Z,100812.92
2018-04-22T16:27:49.117Z,100806.66
2018-04-22T16:30:17.516Z,100805.22
2018-04-22T16:32:46.207Z,100808.06
2018-04-22T16:35:14.562Z,100810.09
2018-04-22T16:37:42.852Z,100811.85
2018-04-22T16:40:11.489Z,100822.64
2018-04-22T16:42:40.644Z,100813.06
2018-04-22T16:45:09.103Z,100804.41
2018-04-22T16:47:37.528Z,100801.59
2018-04-22T16:50:05.942Z,100793.55
2018-04-22T16:52:34.289Z,100800.51
2018-04-22T16:55:02.653Z,100796.68
2018-04-22T16:58:34.136Z,100793.44
2018-04-22T17:01:02.557Z,100793.41
2018-04-22T17:03:30.879Z,100787.52
2018-04-22T17:05:59.252Z,100793.27
2018-04-22T17:08:27.622Z,100790.28
2018-04-22T17:10:56.000Z,100790.92
2018-04-22T17:13:24.276Z,100780.68
2018-04-22T17:15:52.588Z,100781.48
2018-04-22T17:18:20.864Z,100783.50
2018-04-22T17:20:49.203Z,100777.39
2018-04-22T17:23:17.477Z,100778.66
2018-04-22T17:25:45.847Z,100777.80
2018-04-22T17:28:14.161Z,100783.88
2018-04-22T17:31:45.157Z,100783.78
2018-04-22T17:34:13.549Z,100771.78
2018-04-22T17:36:42.199Z,100775.52
2018-04-22T17:39:10.515Z,100768.36
2018-04-22T17:41:38.840Z,100768.08
2018-04-22T17:44:07.124Z,100767.33
2018-04-22T17:46:35.465Z,100767.53
2018-04-22T17:49:03.740Z,100762.63
2018-04-22T17:51:32.129Z,100758.45
2018-04-22T17:54:00.575Z,100763.86
2018-04-22T17:56:29.167Z,100760.41
2018-04-22T17:58:57.457Z,100761.63
2018-04-22T18:01:25.827Z,100765.45
2018-04-22T18:03:54.279Z,100762.03
2018-04-22T18:06:22.877Z,100757.82
2018-04-22T18:08:57.950Z,100768.66
2018-04-22T18:11:26.827Z,100768.34
2018-04-22T18:13:55.095Z,100767.85
2018-04-22T18:16:23.498Z,100764.80
2018-04-22T18:18:51.937Z,100765.80
2018-04-22T18:21:20.359Z,100764.67
2018-04-22T18:26:23.223Z,100766.06
2018-04-22T18:28:53.229Z,100763.13
2018-04-22T18:31:21.938Z,100762.77
2018-04-22T18:33:50.519Z,100759.34
2018-04-22T18:36:19.011Z,100763.84
2018-04-22T18:38:47.296Z,100769.77
2018-04-22T18:41:15.767Z,100766.52
2018-04-22T18:43:44.755Z,100772.90
2018-04-22T18:46:13.463Z,100775.36
2018-04-22T18:48:41.769Z,100771.47
2018-04-22T18:51:10.095Z,100769.34
2018-04-22T18:53:38.424Z,100769.52
2018-04-22T18:56:07.157Z,100767.84
2018-04-22T18:58:35.520Z,100761.05
2018-04-22T19:01:03.892Z,100769.05
2018-04-22T19:03:32.375Z,100767.20
2018-04-22T19:06:00.757Z,100762.42
2018-04-22T19:08:29.073Z,100769.98
2018-04-22T19:10:57.448Z,100763.27
2018-04-22T19:14:28.493Z,100773.56
2018-04-22T19:16:58.094Z,100765.80
2018-04-22T19:19:26.543Z,100755.91
2018-04-22T19:21:54.888Z,100761.20
2018-04-22T19:24:23.246Z,100763.41
2018-04-22T19:26:51.644Z,100756.70
2018-04-22T19:29:19.992Z,100761.84
2018-04-22T19:31:48.376Z,100749.92
2018-04-22T19:34:16.671Z,100753.42
2018-04-22T19:36:45.019Z,100756.45
2018-04-22T19:39:13.356Z,100752.69
2018-04-22T19:41:41.717Z,100753.74
2018-04-22T19:44:10.439Z,100753.20
2018-04-22T19:46:38.839Z,100752.19
2018-04-22T19:49:07.190Z,100753.92
2018-04-22T19:51:35.574Z,100742.70
2018-04-22T19:54:04.090Z,100745.63
2018-04-22T19:56:32.703Z,100740.06
2018-04-22T19:59:01.013Z,100739.31
2018-04-22T20:01:29.409Z,100737.34
2018-04-22T20:03:58.191Z,100727.31
2018-04-22T20:06:26.527Z,100740.76
2018-04-22T20:08:54.849Z,100738.56
2018-04-22T20:11:23.240Z,100743.21
2018-04-22T20:13:51.547Z,100735.37
2018-04-22T20:16:19.879Z,100739.81
2018-04-22T20:18:48.177Z,100737.73
2018-04-22T20:21:16.832Z,100744.69
2018-04-22T20:23:45.132Z,100738.94
2018-04-22T20:26:13.748Z,100735.84
2018-04-22T20:28:42.434Z,100733.39
2018-04-22T20:31:13.428Z,100729.30
2018-04-22T20:33:42.359Z,100731.64
2018-04-22T20:36:10.680Z,100733.39
2018-04-22T20:38:39.020Z,100735.92
2018-04-22T20:42:10.185Z,100726.09
2018-04-22T20:44:38.567Z,100726.11
2018-04-22T20:47:06.992Z,100735.84
2018-04-22T20:49:35.298Z,100726.44
2018-04-22T20:52:03.743Z,100726.23
2018-04-22T20:54:32.051Z,100726.09
2018-04-22T20:57:00.511Z,100725.33
2018-04-22T20:59:28.930Z,100722.55
2018-04-22T21:01:57.292Z,100729.20
2018-04-22T21:04:25.600Z,100790.11
2018-04-22T21:06:53.935Z,100884.16
2018-04-22T21:09:22.265Z,100870.52
2018-04-22T21:11:50.660Z,100837.03
2018-04-22T21:14:19.235Z,100849.58
2018-04-22T21:16:47.579Z,100838.67
2018-04-22T21:19:15.859Z,100838.20
2018-04-22T21:21:44.180Z,100843.47
2018-04-22T21:24:12.471Z,100843.13
2018-04-22T21:26:40.844Z,100833.81
2018-04-22T21:29:09.414Z,100836.14
2018-04-22T21:31:37.836Z,100824.20
2018-04-22T21:34:07.554Z,100819.44
2018-04-22T21:36:36.541Z,100813.09
2018-04-22T21:39:05.473Z,100812.11
2018-04-22T21:41:33.792Z,100806.77
2018-04-22T21:44:02.181Z,100808.38
2018-04-22T21:46:30.808Z,100805.06
2018-04-22T21:48:59.127Z,100807.70
2018-04-22T21:51:30.912Z,100808.11
2018-04-22T21:54:05.867Z,100808.21
2018-04-22T21:56:34.604Z,100795.77
2018-04-22T21:59:03.564Z,100803.19
2018-04-22T22:01:31.986Z,100803.62
2018-04-22T22:04:00.356Z,100806.38
2018-04-22T22:06:28.701Z,100801.75
2018-04-22T22:08:57.029Z,100800.42
2018-04-22T22:11:25.452Z,100800.60
2018-04-22T22:13:53.772Z,100779.28
2018-04-22T22:16:22.422Z,100775.59
2018-04-22T22:18:50.820Z,100771.83
2018-04-22T22:21:19.588Z,100755.69
2018-04-22T22:23:47.911Z,100752.30
2018-04-22T22:26:16.266Z,100752.97
2018-04-22T22:28:44.604Z,100741.81
2018-04-22T22:31:13.020Z,100734.21
2018-04-22T22:33:41.315Z,100735.32
2018-04-22T22:36:09.781Z,100741.16
2018-04-22T22:38:38.085Z,100736.29
2018-04-22T22:41:06.417Z,100723.19
2018-04-22T22:43:34.708Z,100711.90
2018-04-22T22:46:03.015Z,100712.50
2018-04-22T22:48:31.330Z,100703.70
2018-04-22T22:51:00.112Z,100700.94
2018-04-22T22:53:28.698Z,100698.16
2018-04-22T22:55:57.528Z,100703.31
2018-04-22T22:58:25.827Z,100695.61
2018-04-22T23:00:54.160Z,100687.32
2018-04-22T23:03:22.439Z,100696.61
2018-04-22T23:05:50.824Z,100692.02
2018-04-22T23:08:19.163Z,100692.42
2018-04-22T23:10:47.487Z,100698.37
2018-04-22T23:13:15.795Z,100705.25
2018-04-22T23:15:44.140Z,100699.09
2018-04-22T23:18:12.456Z,100710.92
2018-04-22T23:20:40.803Z,100706.19
2018-04-22T23:23:09.160Z,100696.69
2018-04-22T23:25:37.564Z,100690.44
2018-04-22T23:28:05.895Z,100690.22
2018-04-22T23:30:34.246Z,100694.41
2018-04-22T23:33:02.549Z,100686.01
2018-04-22T23:35:30.940Z,100685.51
2018-04-22T23:38:00.560Z,100683.47
2018-04-22T23:40:28.892Z,100681.99
2018-04-22T23:42:57.200Z,100674.17
2018-04-22T23:45:25.511Z,100677.92
2018-04-22T23:47:53.847Z,100665.44
2018-04-22T23:50:22.488Z,100650.63
2018-04-22T23:52:50.810Z,100652.67
2018-04-22T23:55:19.164Z,100655.03
2018-04-22T23:57:47.495Z,100648.44
